Time;durP1;ratioP1;P1;durP2;ratioP2;P2;SDS_P1;SDS_P2;PMS_P1;PMS_P2;Temp;Humidity;BMP_temperature;BMP_pressure;BME280_temperature;BME280_humidity;BME280_pressure;Samples;Min_cycle;Max_cycle;Signal;HPM_P1;HPM_P2
2023/10/09 00:00:36;;;;;;;8.38;2.90;;;;;;;19.06;45.26;95375.53;4985404;28;20231;-79
2023/10/09 00:03:00;;;;;;;6.60;2.10;;;;;;;18.95;45.56;95375.09;4987913;28;20227;-80
2023/10/09 00:05:38;;;;;;;9.18;2.50;;;;;;;18.99;45.43;95378.19;4954542;28;20715;-80
2023/10/09 00:08:04;;;;;;;5.95;2.20;;;;;;;19.03;45.21;95387.44;4956669;28;20286;-79
2023/10/09 00:10:45;;;;;;;8.65;2.40;;;;;;;18.98;45.16;95391.69;4954377;28;20224;-78
2023/10/09 00:13:11;;;;;;;9.10;2.45;;;;;;;18.93;45.20;95384.31;4954556;28;20712;-79
2023/10/09 00:15:36;;;;;;;5.95;2.17;;;;;;;18.89;45.35;95385.69;4954668;28;20303;-79
2023/10/09 00:18:11;;;;;;;7.20;1.90;;;;;;;18.86;45.50;95386.91;4958323;28;20789;-80
2023/10/09 00:20:42;;;;;;;5.60;2.25;;;;;;;18.90;45.51;95382.84;4956897;28;20196;-79
2023/10/09 00:23:15;;;;;;;4.90;2.25;;;;;;;18.97;45.16;95385.53;4953696;28;20195;-79
2023/10/09 00:26:12;;;;;;;6.75;2.10;;;;;;;19.01;45.13;95388.66;4973410;28;20271;-79
2023/10/09 00:28:41;;;;;;;6.47;2.10;;;;;;;19.04;45.05;95382.94;5009289;28;20226;-79
2023/10/09 00:31:07;;;;;;;6.18;2.38;;;;;;;18.83;45.27;95387.28;5002652;28;20226;-80
2023/10/09 00:33:34;;;;;;;6.55;2.20;;;;;;;18.63;45.74;95383.59;5011923;28;20245;-80
2023/10/09 00:36:09;;;;;;;6.88;2.53;;;;;;;18.83;45.57;95381.97;5005141;28;20249;-80
2023/10/09 00:38:35;;;;;;;6.18;2.20;;;;;;;18.70;45.51;95384.50;5008655;28;20186;-79
2023/10/09 00:43:52;;;;;;;3.25;1.83;;;;;;;18.60;45.91;95386.66;5020829;28;20235;-78
2023/10/09 00:48:52;;;;;;;5.43;2.30;;;;;;;18.61;45.65;95396.31;5004386;28;20319;-76
2023/10/09 00:51:18;;;;;;;8.43;1.90;;;;;;;18.63;45.49;95407.56;4995294;28;20233;-77
2023/10/09 00:53:51;;;;;;;9.68;2.15;;;;;;;18.52;45.95;95414.25;4992377;28;20738;-77
2023/10/09 00:59:13;;;;;;;4.78;1.88;;;;;;;18.48;45.73;95397.84;5008804;28;20647;-77
2023/10/09 01:01:40;;;;;;;2.78;1.98;;;;;;;18.24;46.28;95401.72;4981445;28;20219;-77
2023/10/09 01:04:17;;;;;;;8.43;1.85;;;;;;;18.32;45.83;95403.44;4976358;28;20251;-78
2023/10/09 01:07:04;;;;;;;3.33;1.83;;;;;;;18.45;45.58;95413.38;5004080;28;20236;-77
2023/10/09 01:09:36;;;;;;;3.45;1.95;;;;;;;18.47;45.38;95427.31;4978992;28;20229;-77
2023/10/09 01:14:27;;;;;;;4.80;1.80;;;;;;;18.26;45.52;95415.66;4990964;28;20192;-78
2023/10/09 01:16:54;;;;;;;6.32;1.85;;;;;;;18.28;45.58;95410.13;4971363;28;20215;-78
2023/10/09 01:19:23;;;;;;;4.93;1.42;;;;;;;18.21;45.68;95419.91;4988581;28;20226;-78
2023/10/09 01:21:50;;;;;;;3.15;1.52;;;;;;;18.12;45.74;95432.47;4984196;28;20299;-77
2023/10/09 01:24:16;;;;;;;5.32;1.75;;;;;;;17.97;45.73;95437.88;4986791;28;20250;-77
2023/10/09 01:26:54;;;;;;;9.18;1.63;;;;;;;18.14;45.25;95443.78;4988457;28;20617;-77
2023/10/09 01:29:21;;;;;;;4.15;1.85;;;;;;;18.00;45.12;95444.66;4984135;28;21835;-78
2023/10/09 01:31:56;;;;;;;4.32;1.90;;;;;;;17.85;45.55;95439.34;4991153;28;20223;-78
2023/10/09 01:37:05;;;;;;;3.08;1.67;;;;;;;17.71;45.65;95440.19;5002968;28;20218;-77
2023/10/09 01:39:30;;;;;;;4.50;1.55;;;;;;;17.71;45.80;95458.78;5003527;28;20743;-78
2023/10/09 01:42:00;;;;;;;4.75;1.58;;;;;;;17.68;45.53;95444.03;4995965;28;20227;-78
2023/10/09 01:44:28;;;;;;;3.08;1.65;;;;;;;17.65;45.45;95463.03;4988200;28;20183;-78
2023/10/09 01:46:58;;;;;;;5.65;1.60;;;;;;;17.66;45.80;95466.50;5004801;28;20281;-75
2023/10/09 01:49:31;;;;;;;3.47;2.03;;;;;;;17.53;46.11;95467.97;5007377;28;20214;-76
2023/10/09 01:52:08;;;;;;;4.60;1.80;;;;;;;17.68;45.39;95465.31;5006390;28;20265;-79
2023/10/09 01:54:38;;;;;;;5.00;1.70;;;;;;;17.80;45.34;95474.50;5003207;28;20214;-80
2023/10/09 01:57:15;;;;;;;4.65;1.77;;;;;;;17.48;46.08;95486.31;5005671;28;20322;-78
2023/10/09 01:59:44;;;;;;;3.75;1.63;;;;;;;17.41;45.99;95485.38;5024585;28;20278;-77
2023/10/09 02:02:34;;;;;;;5.53;1.95;;;;;;;17.40;45.96;95487.22;5009346;28;20264;-77
2023/10/09 02:05:24;;;;;;;4.75;2.40;;;;;;;17.36;46.23;95482.44;5037904;28;20241;-81
2023/10/09 02:07:52;;;;;;;9.25;2.33;;;;;;;17.05;46.63;95474.59;5048263;28;20229;-78
2023/10/09 02:12:58;;;;;;;5.32;1.70;;;;;;;17.12;46.50;95516.22;5038816;28;20221;-80
2023/10/09 02:21:00;;;;;;;3.13;1.70;;;;;;;17.12;46.15;95528.69;5044427;28;20446;-82
2023/10/09 02:23:49;;;;;;;9.05;1.88;;;;;;;16.90;46.23;95520.56;5047034;28;20292;-82
2023/10/09 02:28:52;;;;;;;5.38;1.80;;;;;;;16.68;46.71;95521.34;5043553;28;20233;-77
2023/10/09 02:31:21;;;;;;;6.03;2.00;;;;;;;16.74;46.86;95531.28;5041686;28;20507;-80
2023/10/09 02:33:50;;;;;;;3.25;1.67;;;;;;;16.71;46.67;95519.19;5043065;28;20312;-77
2023/10/09 02:36:15;;;;;;;3.35;1.60;;;;;;;16.74;46.70;95529.47;5042293;28;20248;-76
2023/10/09 02:38:42;;;;;;;2.88;1.42;;;;;;;16.61;46.97;95521.25;5042205;28;20208;-76
2023/10/09 02:43:47;;;;;;;2.50;1.60;;;;;;;16.75;46.53;95523.13;5038706;28;20624;-77
2023/10/09 02:46:34;;;;;;;4.38;1.50;;;;;;;16.62;46.60;95509.63;5047480;28;20240;-77
2023/10/09 02:48:59;;;;;;;6.22;1.40;;;;;;;16.43;47.19;95523.38;5046567;28;20252;-77
2023/10/09 02:53:57;;;;;;;3.05;1.50;;;;;;;16.24;47.55;95544.03;5043610;28;20787;-79
2023/10/09 02:56:47;;;;;;;6.80;1.65;;;;;;;16.12;47.75;95557.84;5045076;28;20192;-79
2023/10/09 02:59:13;;;;;;;3.42;1.88;;;;;;;16.10;47.82;95553.56;5045868;28;20202;-78
2023/10/09 03:01:39;;;;;;;2.42;1.60;;;;;;;16.16;47.53;95559.16;5043900;28;20578;-78
2023/10/09 03:04:05;;;;;;;6.40;1.63;;;;;;;16.16;47.47;95559.16;5040877;28;20249;-74
2023/10/09 03:06:38;;;;;;;2.83;1.35;;;;;;;16.01;47.70;95557.25;5044994;28;20249;-74
2023/10/09 03:09:16;;;;;;;3.42;1.58;;;;;;;16.02;47.68;95558.91;5045394;28;20221;-76
2023/10/09 03:11:48;;;;;;;3.35;1.50;;;;;;;16.14;47.45;95561.16;5040187;28;20189;-74
2023/10/09 03:14:14;;;;;;;4.45;1.40;;;;;;;16.13;47.25;95549.72;5047324;28;20190;-75
2023/10/09 03:16:39;;;;;;;1.58;1.30;;;;;;;16.23;46.80;95550.34;5046665;28;20226;-74
2023/10/09 03:19:04;;;;;;;1.40;1.27;;;;;;;16.31;46.78;95550.31;5047313;28;20272;-76
2023/10/09 03:21:30;;;;;;;3.78;1.50;;;;;;;16.32;46.62;95559.91;5042132;28;20225;-76
2023/10/09 03:23:56;;;;;;;3.40;1.38;;;;;;;16.25;46.69;95569.59;5044105;28;20229;-76
2023/10/09 03:26:25;;;;;;;4.13;1.45;;;;;;;16.17;46.59;95592.66;5041591;28;20185;-74
2023/10/09 03:28:52;;;;;;;2.95;1.20;;;;;;;16.06;46.88;95601.81;5047360;28;20734;-77
2023/10/09 03:31:18;;;;;;;3.22;1.40;;;;;;;16.00;46.91;95586.59;5045493;28;20225;-76
2023/10/09 03:33:43;;;;;;;1.20;1.08;;;;;;;15.97;46.86;95603.66;5049559;28;20222;-77
2023/10/09 03:36:09;;;;;;;4.47;1.25;;;;;;;15.87;47.00;95593.25;5050563;28;20367;-77
2023/10/09 03:38:40;;;;;;;3.20;1.30;;;;;;;15.78;46.80;95590.81;5047164;28;20570;-77
2023/10/09 03:41:06;;;;;;;4.53;1.38;;;;;;;15.69;47.20;95584.72;5046051;28;20243;-77
2023/10/09 03:43:40;;;;;;;3.08;1.27;;;;;;;15.76;46.73;95592.78;5040840;28;20304;-77
2023/10/09 03:46:32;;;;;;;5.65;1.67;;;;;;;15.71;46.65;95603.91;5050317;28;20210;-75
2023/10/09 03:49:00;;;;;;;3.90;1.13;;;;;;;15.55;46.87;95593.28;5046350;28;20244;-77
2023/10/09 03:51:26;;;;;;;2.47;1.20;;;;;;;15.52;46.89;95593.63;5044888;28;20228;-83
2023/10/09 03:53:55;;;;;;;2.28;1.27;;;;;;;15.50;46.81;95593.78;5049184;28;20217;-81
2023/10/09 03:56:21;;;;;;;2.72;1.10;;;;;;;15.58;46.63;95599.13;5041039;28;20193;-81
2023/10/09 03:58:49;;;;;;;3.40;1.30;;;;;;;15.64;46.76;95603.72;5039863;28;20213;-78
2023/10/09 04:03:54;;;;;;;1.98;1.23;;;;;;;15.52;46.96;95599.75;5049820;28;20709;-81
2023/10/09 04:06:21;;;;;;;1.23;1.00;;;;;;;15.47;46.73;95606.56;5042431;28;20276;-79
2023/10/09 04:08:51;;;;;;;2.50;1.20;;;;;;;15.47;46.36;95611.88;5044117;28;20213;-78
2023/10/09 04:11:16;;;;;;;1.05;0.93;;;;;;;15.20;47.13;95603.25;5047766;28;20297;-78
2023/10/09 04:13:49;;;;;;;1.70;1.10;;;;;;;15.36;47.20;95611.19;5048804;28;20722;-75
2023/10/09 04:19:11;;;;;;;2.95;1.40;;;;;;;15.20;46.63;95598.78;5048432;28;20217;-76
2023/10/09 04:21:37;;;;;;;1.48;1.00;;;;;;;15.14;47.11;95598.63;5046496;28;20263;-75
2023/10/09 04:26:46;;;;;;;1.55;1.10;;;;;;;15.10;46.58;95610.53;5049225;28;20173;-77
2023/10/09 04:29:26;;;;;;;1.83;1.20;;;;;;;14.92;45.96;95624.78;5043820;28;20194;-75
2023/10/09 04:31:56;;;;;;;4.40;1.38;;;;;;;14.81;45.96;95618.94;5051562;28;20217;-76
2023/10/09 04:37:00;;;;;;;2.72;1.00;;;;;;;14.75;45.31;95620.44;5040887;28;20235;-76
2023/10/09 04:47:35;;;;;;;1.98;1.42;;;;;;;14.64;45.42;95597.75;4949561;28;20212;-75
2023/10/09 04:52:54;;;;;;;1.65;1.17;;;;;;;14.81;44.93;95605.72;4940914;28;20236;-78
2023/10/09 04:55:24;;;;;;;2.47;1.05;;;;;;;14.79;44.79;95611.19;4931444;29;20224;-75
2023/10/09 05:00:47;;;;;;;2.22;1.30;;;;;;;14.81;43.85;95619.81;4895788;29;20230;-76
2023/10/09 05:03:24;;;;;;;3.33;1.20;;;;;;;14.63;43.87;95617.28;4893626;29;20242;-78
2023/10/09 05:05:58;;;;;;;2.38;1.13;;;;;;;14.76;43.32;95620.28;4878591;29;20707;-78
2023/10/09 05:16:26;;;;;;;1.85;1.33;;;;;;;14.76;42.52;95636.16;4896265;29;20257;-76
2023/10/09 05:18:57;;;;;;;2.15;1.25;;;;;;;14.70;42.69;95649.22;4892869;29;20783;-76
2023/10/09 05:29:19;;;;;;;3.80;1.17;;;;;;;14.65;41.80;95655.00;4973916;28;20700;-74
2023/10/09 05:34:33;;;;;;;2.50;1.48;;;;;;;14.71;41.99;95661.47;4971280;28;20327;-71
2023/10/09 05:42:42;;;;;;;1.13;0.90;;;;;;;14.87;41.46;95681.88;4985279;28;20224;-74
2023/10/09 05:54:11;;;;;;;2.25;1.60;;;;;;;14.88;40.62;95684.34;4946724;29;21095;-76
2023/10/09 06:04:15;;;;;;;1.85;1.15;;;;;;;14.94;40.00;95712.84;4934816;29;20285;-75
2023/10/09 06:06:45;;;;;;;2.30;1.20;;;;;;;15.03;40.17;95715.50;4914166;29;20229;-74
2023/10/09 06:14:49;;;;;;;2.80;1.50;;;;;;;15.02;39.42;95729.72;4933612;29;20181;-73
2023/10/09 06:19:43;;;;;;;3.55;2.03;;;;;;;15.18;38.63;95733.25;4989501;28;20220;-74
2023/10/09 06:24:42;;;;;;;3.70;1.40;;;;;;;15.36;37.72;95738.41;4982113;28;20224;-76
2023/10/09 06:29:50;;;;;;;2.17;1.00;;;;;;;15.32;37.12;95728.31;4993926;28;20717;-74
2023/10/09 06:35:16;;;;;;;2.17;1.50;;;;;;;15.04;37.59;95735.69;5044686;28;20222;-74
2023/10/09 06:43:36;;;;;;;2.72;1.20;;;;;;;15.29;37.15;95748.00;4999395;28;20242;-79
2023/10/09 06:49:15;;;;;;;3.75;1.13;;;;;;;15.09;37.14;95730.75;4962503;28;20320;-76
2023/10/09 06:51:40;;;;;;;1.88;1.20;;;;;;;15.15;36.95;95735.38;4950162;28;20227;-77
2023/10/09 06:54:09;;;;;;;1.50;1.27;;;;;;;15.32;36.38;95742.38;4960485;28;20709;-74
2023/10/09 06:59:13;;;;;;;2.15;1.00;;;;;;;15.39;35.68;95739.88;4954430;28;20184;-77
2023/10/09 07:06:50;;;;;;;1.60;1.30;;;;;;;15.86;34.89;95737.47;4975560;28;20287;-77
2023/10/09 07:09:19;;;;;;;1.90;1.23;;;;;;;15.77;34.62;95741.13;4973472;28;20332;-75
2023/10/09 07:17:04;;;;;;;3.72;1.13;;;;;;;15.84;34.18;95741.28;4971100;28;20579;-75
2023/10/09 07:19:57;;;;;;;1.27;1.08;;;;;;;15.64;34.10;95743.41;4957157;28;20232;-75
2023/10/09 07:22:29;;;;;;;1.83;1.30;;;;;;;15.59;33.62;95738.59;4973460;28;20780;-77
2023/10/09 07:24:58;;;;;;;1.73;1.15;;;;;;;15.79;33.02;95738.28;5012945;28;20861;-76
2023/10/09 07:38:19;;;;;;;1.63;1.10;;;;;;;15.91;33.33;95744.94;5049712;28;20646;-74
2023/10/09 07:43:19;;;;;;;2.67;1.38;;;;;;;16.25;32.75;95744.72;5047369;28;20221;-75
2023/10/09 07:48:15;;;;;;;3.78;1.10;;;;;;;16.29;32.76;95742.53;5044392;28;20777;-71
2023/10/09 07:50:41;;;;;;;3.05;1.20;;;;;;;16.37;32.33;95747.84;5051845;28;20207;-74
2023/10/09 07:53:25;;;;;;;1.58;1.15;;;;;;;16.30;31.48;95746.84;5045993;28;20194;-76
2023/10/09 07:55:55;;;;;;;1.90;1.30;;;;;;;16.30;31.30;95747.69;5046275;28;20217;-73
2023/10/09 07:58:28;;;;;;;4.47;1.40;;;;;;;16.26;31.64;95742.88;5046994;28;20247;-72
2023/10/09 08:01:07;;;;;;;4.85;2.28;;;;;;;16.45;31.46;95741.69;5039905;28;20263;-72
2023/10/09 08:03:36;;;;;;;2.35;1.80;;;;;;;16.70;31.04;95753.84;5052685;28;20752;-77
2023/10/09 08:14:20;;;;;;;2.70;1.52;;;;;;;16.57;31.22;95748.25;4991491;28;20199;-72
2023/10/09 08:16:46;;;;;;;1.77;1.50;;;;;;;16.76;31.06;95737.25;4977076;28;20218;-75
2023/10/09 08:24:43;;;;;;;1.95;1.10;;;;;;;16.85;30.31;95742.56;4986518;28;20235;-75
2023/10/09 08:33:05;;;;;;;1.73;1.13;;;;;;;16.57;30.44;95744.78;4937731;29;20229;-74
2023/10/09 08:35:35;;;;;;;1.58;1.17;;;;;;;16.41;30.09;95751.81;4936038;29;20378;-74
2023/10/09 08:38:08;;;;;;;1.48;1.10;;;;;;;16.20;30.86;95727.63;4933040;29;20218;-71
2023/10/09 08:40:33;;;;;;;1.67;1.30;;;;;;;16.25;30.84;95712.88;4932911;29;20222;-73
2023/10/09 08:43:08;;;;;;;1.08;0.98;;;;;;;16.54;30.51;95709.63;4918330;29;20745;-71
2023/10/09 08:45:39;;;;;;;1.77;1.10;;;;;;;16.71;30.15;95710.38;4946228;28;20219;-72
2023/10/09 08:48:06;;;;;;;1.67;1.20;;;;;;;16.70;29.63;95710.56;4971782;28;20242;-72
2023/10/09 08:50:34;;;;;;;2.05;1.00;;;;;;;16.76;29.63;95700.06;4989905;28;20678;-72
2023/10/09 08:53:01;;;;;;;2.20;1.02;;;;;;;16.92;30.07;95707.16;4972414;28;20191;-77
2023/10/09 08:55:26;;;;;;;2.92;1.10;;;;;;;17.10;29.31;95711.38;4975610;28;20225;-72
2023/10/09 08:57:52;;;;;;;3.50;1.25;;;;;;;17.10;29.24;95698.91;4974899;28;20216;-72
2023/10/09 09:00:23;;;;;;;1.77;1.08;;;;;;;17.27;29.42;95685.50;5012162;28;20226;-78
2023/10/09 09:02:55;;;;;;;7.53;1.40;;;;;;;17.47;29.25;95681.38;5022728;28;20186;-76
2023/10/09 09:05:21;;;;;;;5.68;1.80;;;;;;;17.63;28.93;95691.91;5027579;28;20194;-78
2023/10/09 09:07:48;;;;;;;3.15;1.33;;;;;;;17.56;28.75;95676.81;5022630;28;20231;-76
2023/10/09 09:10:24;;;;;;;1.40;1.00;;;;;;;17.76;28.40;95685.97;5025084;28;20225;-76
2023/10/09 09:12:53;;;;;;;3.78;1.25;;;;;;;17.77;27.56;95695.59;5015008;28;20229;-76
2023/10/09 09:15:26;;;;;;;5.22;1.50;;;;;;;17.87;26.99;95689.25;5024508;28;20274;-74
2023/10/09 09:18:06;;;;;;;4.28;1.48;;;;;;;17.97;27.12;95701.28;5020858;28;20235;-77
2023/10/09 09:20:36;;;;;;;2.30;1.38;;;;;;;18.01;26.32;95685.78;5017407;28;20220;-76
2023/10/09 09:23:05;;;;;;;1.40;1.10;;;;;;;17.91;26.19;95686.03;5018897;28;20196;-76
2023/10/09 09:25:44;;;;;;;3.05;1.17;;;;;;;17.91;26.55;95687.84;5022021;28;20235;-77
2023/10/09 09:28:12;;;;;;;3.40;1.02;;;;;;;18.06;26.59;95681.56;5025563;28;20284;-76
2023/10/09 09:30:40;;;;;;;2.42;1.30;;;;;;;18.19;26.22;95686.25;5026049;28;20223;-78
2023/10/09 09:35:58;;;;;;;2.03;1.13;;;;;;;18.01;25.89;95667.97;5026965;28;20698;-77
2023/10/09 09:38:27;;;;;;;5.22;1.92;;;;;;;18.20;25.89;95668.44;5025594;28;20175;-77
2023/10/09 09:40:55;;;;;;;1.88;1.25;;;;;;;18.16;25.54;95661.84;5020180;28;20253;-78
2023/10/09 09:43:22;;;;;;;2.80;1.33;;;;;;;18.38;25.28;95663.56;5027038;28;20232;-78
2023/10/09 09:45:49;;;;;;;1.15;1.00;;;;;;;18.46;24.83;95668.81;5028724;28;20217;-78
2023/10/09 09:48:16;;;;;;;2.03;1.40;;;;;;;18.55;25.37;95658.06;5025804;28;20232;-78
2023/10/09 09:50:45;;;;;;;1.17;1.08;;;;;;;18.75;25.30;95663.69;5022446;28;20659;-77
2023/10/09 09:53:17;;;;;;;3.05;1.33;;;;;;;18.60;25.04;95663.66;5022935;28;20252;-77
2023/10/09 09:55:55;;;;;;;1.92;1.20;;;;;;;18.79;24.64;95657.78;5021385;28;20253;-77
2023/10/09 09:58:23;;;;;;;6.72;1.30;;;;;;;18.88;24.67;95651.31;5025569;28;20282;-78
2023/10/09 10:00:55;;;;;;;1.83;1.30;;;;;;;19.02;24.76;95649.63;5022426;28;20215;-77
2023/10/09 10:03:29;;;;;;;5.45;1.40;;;;;;;19.19;23.74;95644.88;5024073;28;20237;-78
2023/10/09 10:05:56;;;;;;;1.20;1.10;;;;;;;19.13;23.37;95637.66;5034991;28;20221;-77
2023/10/09 10:08:32;;;;;;;1.55;1.30;;;;;;;19.06;23.90;95628.75;5025267;28;20206;-78
2023/10/09 10:11:05;;;;;;;1.45;1.30;;;;;;;19.05;23.90;95614.59;5020108;28;20233;-78
2023/10/09 10:13:40;;;;;;;2.80;1.10;;;;;;;19.35;23.60;95617.97;5030179;28;20237;-76
2023/10/09 10:16:13;;;;;;;2.45;1.30;;;;;;;19.48;23.24;95611.09;5019987;28;20301;-76
2023/10/09 10:19:23;;;;;;;2.38;1.40;;;;;;;19.65;22.90;95617.00;5023854;28;20273;-76
2023/10/09 10:21:49;;;;;;;4.28;1.42;;;;;;;19.56;23.32;95602.94;5022930;28;20226;-76
2023/10/09 10:27:17;;;;;;;3.92;1.63;;;;;;;19.88;23.01;95590.91;5027132;28;20312;-69
2023/10/09 10:29:46;;;;;;;2.17;1.20;;;;;;;19.96;24.02;95584.59;5021306;28;20343;-70
2023/10/09 10:32:12;;;;;;;3.13;1.30;;;;;;;20.07;23.69;95575.19;5027249;28;20201;-70
2023/10/09 10:34:55;;;;;;;3.35;1.40;;;;;;;20.21;22.70;95568.94;5017332;28;20301;-72
2023/10/09 10:37:51;;;;;;;3.00;1.40;;;;;;;20.23;21.89;95577.53;5019676;28;20258;-70
2023/10/09 10:40:45;;;;;;;3.05;1.90;;;;;;;20.24;21.92;95557.84;5017745;28;20226;-71
2023/10/09 10:46:37;;;;;;;2.03;1.45;;;;;;;20.39;22.00;95555.00;4990995;28;20310;-70
2023/10/09 10:51:39;;;;;;;3.63;1.63;;;;;;;20.70;22.45;95531.31;4988566;28;20215;-71
2023/10/09 10:57:03;;;;;;;4.18;2.83;;;;;;;20.88;21.97;95535.28;4910599;29;20225;-68
2023/10/09 10:59:41;;;;;;;3.90;2.20;;;;;;;20.90;21.99;95528.69;4892140;29;20187;-67
2023/10/09 11:04:41;;;;;;;2.10;1.90;;;;;;;21.00;22.39;95533.63;4925150;29;20260;-76
2023/10/09 11:07:09;;;;;;;3.60;2.22;;;;;;;20.99;22.40;95528.50;4923953;29;20269;-76
2023/10/09 11:18:07;;;;;;;2.13;1.75;;;;;;;21.62;21.76;95507.50;4927968;29;20217;-72
2023/10/09 11:20:35;;;;;;;2.80;2.20;;;;;;;21.67;20.72;95494.31;4930292;29;20206;-73
2023/10/09 11:25:38;;;;;;;7.18;2.10;;;;;;;21.50;21.89;95493.94;4951524;28;20224;-72
2023/10/09 11:28:29;;;;;;;2.75;1.50;;;;;;;21.55;21.34;95475.41;4949981;28;20229;-74
2023/10/09 11:31:05;;;;;;;2.30;1.80;;;;;;;21.72;21.46;95481.13;4928148;29;20292;-72
2023/10/09 11:33:42;;;;;;;2.95;2.08;;;;;;;21.82;22.12;95472.69;4987022;28;20218;-72
2023/10/09 11:36:08;;;;;;;2.70;1.90;;;;;;;22.00;21.31;95486.22;5048681;28;20293;-73
2023/10/09 11:38:38;;;;;;;6.28;3.10;;;;;;;21.96;21.59;95482.31;5020339;28;20679;-71
2023/10/09 11:41:19;;;;;;;3.70;3.05;;;;;;;22.09;21.91;95472.59;5022450;28;20753;-70
2023/10/09 11:43:53;;;;;;;5.10;3.20;;;;;;;22.10;21.01;95471.53;5026004;28;20218;-69
2023/10/09 11:49:44;;;;;;;2.40;2.17;;;;;;;22.05;21.10;95466.00;5028532;28;20229;-73
2023/10/09 11:52:35;;;;;;;3.42;2.28;;;;;;;22.22;20.99;95461.84;5023961;28;20306;-72
2023/10/09 11:54:56;;;;;;;4.47;2.60;;;;;;;22.23;21.08;95442.88;5024108;28;20257;-73
2023/10/09 11:57:30;;;;;;;4.05;2.28;;;;;;;22.39;21.06;95446.91;5022336;28;20306;-76
2023/10/09 11:59:56;;;;;;;3.05;2.67;;;;;;;22.61;20.33;95442.06;5026391;28;20214;-71
2023/10/09 12:02:21;;;;;;;3.88;2.70;;;;;;;22.64;20.08;95424.69;5030598;28;20678;-71
2023/10/09 12:04:47;;;;;;;4.70;2.50;;;;;;;22.63;19.54;95426.56;5025499;28;20231;-70
2023/10/09 12:07:12;;;;;;;6.55;3.22;;;;;;;22.79;20.31;95425.19;5022482;28;20225;-72
2023/10/09 12:09:38;;;;;;;2.90;2.45;;;;;;;22.96;21.20;95419.28;5027818;28;20226;-72
2023/10/09 12:12:05;;;;;;;4.22;3.17;;;;;;;23.29;19.68;95416.34;5025343;28;20221;-71
2023/10/09 12:14:34;;;;;;;3.10;2.33;;;;;;;23.23;19.56;95418.06;5026150;28;20839;-71
2023/10/09 12:17:06;;;;;;;2.53;2.28;;;;;;;23.44;20.20;95407.94;5030196;28;20174;-71
2023/10/09 12:19:36;;;;;;;3.20;2.53;;;;;;;23.80;19.11;95411.72;5025967;28;20218;-72
2023/10/09 12:22:03;;;;;;;3.47;2.22;;;;;;;24.30;18.14;95406.94;5020276;28;20249;-71
2023/10/09 12:24:33;;;;;;;5.15;2.60;;;;;;;25.34;17.35;95405.75;5023730;28;20217;-74
2023/10/09 12:26:59;;;;;;;2.33;2.13;;;;;;;26.90;15.84;95402.94;5024636;28;20867;-75
2023/10/09 12:29:29;;;;;;;2.92;2.63;;;;;;;28.19;14.98;95406.41;5024833;28;20256;-71
2023/10/09 12:31:58;;;;;;;3.08;2.70;;;;;;;30.27;12.89;95394.78;5025642;28;20211;-72
2023/10/09 12:34:27;;;;;;;2.58;2.35;;;;;;;31.39;11.67;95396.03;5021657;28;20206;-68
2023/10/09 12:36:53;;;;;;;3.38;2.30;;;;;;;32.78;10.60;95394.41;5027401;28;20207;-74
2023/10/09 12:39:22;;;;;;;2.95;2.38;;;;;;;33.57;10.45;95377.97;5028049;28;20222;-72
2023/10/09 12:41:48;;;;;;;4.35;2.42;;;;;;;34.97;9.45;95382.19;5030532;28;20686;-67
2023/10/09 12:44:14;;;;;;;2.50;2.30;;;;;;;36.15;8.50;95380.13;5054142;28;20179;-74
2023/10/09 12:46:41;;;;;;;3.65;2.85;;;;;;;36.92;7.27;95376.53;5023457;28;20715;-74
2023/10/09 12:49:07;;;;;;;3.45;2.70;;;;;;;37.22;7.22;95366.75;5025958;28;20273;-66
2023/10/09 12:51:32;;;;;;;2.78;2.65;;;;;;;37.80;6.74;95365.00;5025687;28;20238;-68
2023/10/09 12:53:58;;;;;;;3.63;3.42;;;;;;;37.80;6.94;95361.41;5023486;28;20218;-67
2023/10/09 12:56:32;;;;;;;3.65;3.35;;;;;;;38.66;5.90;95360.88;5026765;28;20214;-79
2023/10/09 12:59:04;;;;;;;3.03;2.80;;;;;;;38.27;5.71;95362.56;5023105;28;20214;-73
2023/10/09 13:01:42;;;;;;;3.05;2.85;;;;;;;38.43;5.77;95360.19;5023570;28;20215;-77
2023/10/09 13:04:13;;;;;;;3.17;2.95;;;;;;;39.35;5.43;95354.56;5027790;28;20295;-77
2023/10/09 13:06:45;;;;;;;3.53;3.28;;;;;;;38.58;5.43;95354.25;5027228;28;20225;-68
2023/10/09 13:09:15;;;;;;;3.78;3.47;;;;;;;39.13;5.29;95346.47;5024388;28;20226;-80
2023/10/09 13:11:42;;;;;;;6.40;5.28;;;;;;;38.89;5.38;95336.78;5020210;28;20240;-73
2023/10/09 13:14:16;;;;;;;4.85;4.65;;;;;;;37.95;5.26;95341.78;5022227;28;20175;-72
2023/10/09 13:16:45;;;;;;;5.68;5.18;;;;;;;38.77;5.18;95337.44;5022944;28;20222;-72
2023/10/09 13:19:10;;;;;;;5.82;5.25;;;;;;;39.75;5.26;95323.16;5020665;28;20214;-67
2023/10/09 13:21:40;;;;;;;8.35;7.70;;;;;;;40.56;5.10;95330.34;5019965;28;20272;-67
2023/10/09 13:24:12;;;;;;;10.30;9.50;;;;;;;40.58;5.42;95333.59;5018931;28;20218;-72
2023/10/09 13:26:39;;;;;;;10.68;10.15;;;;;;;41.33;4.93;95319.81;5025916;28;20186;-75
2023/10/09 13:29:08;;;;;;;15.60;14.82;;;;;;;40.44;4.88;95328.31;5025785;28;20224;-71
2023/10/09 13:31:37;;;;;;;15.90;15.10;;;;;;;41.07;5.24;95325.59;5024930;28;20210;-72
2023/10/09 13:34:06;;;;;;;26.95;25.83;;;;;;;41.72;4.66;95317.56;5021379;28;20297;-72
2023/10/09 13:36:35;;;;;;;31.52;30.27;;;;;;;41.54;4.11;95325.28;5024776;28;20218;-75
2023/10/09 13:41:59;;;;;;;1999.90;999.90;;;;;;;42.35;3.29;95322.78;5020589;28;20240;-75
2023/10/09 13:44:26;;;;;;;1999.90;999.90;;;;;;;40.96;4.03;95310.56;5027823;28;20257;-75
2023/10/09 13:46:56;;;;;;;1999.90;999.90;;;;;;;41.38;4.37;95302.19;5028612;28;20230;-74
2023/10/09 13:49:22;;;;;;;1999.90;999.90;;;;;;;41.83;3.97;95309.63;5018557;28;20284;-76
2023/10/09 13:51:49;;;;;;;1999.90;999.90;;;;;;;42.30;3.66;95309.97;5020800;28;20241;-77
2023/10/09 13:54:28;;;;;;;1999.90;999.90;;;;;;;41.88;3.51;95301.13;5027137;28;20249;-78
2023/10/09 13:56:54;;;;;;;1999.90;999.90;;;;;;;42.27;4.05;95296.84;5027672;28;20225;-75
2023/10/09 13:59:25;;;;;;;1999.90;999.90;;;;;;;42.24;3.59;95294.00;5022799;28;20326;-68
2023/10/09 14:01:54;;;;;;;1999.90;999.90;;;;;;;41.63;3.65;95292.03;5022955;28;20226;-69
2023/10/09 14:04:21;;;;;;;1999.90;999.90;;;;;;;40.91;3.95;95292.28;5027246;28;20293;-69
2023/10/09 14:06:47;;;;;;;1999.90;999.90;;;;;;;42.16;3.78;95281.91;5037913;28;20345;-71
2023/10/09 14:09:27;;;;;;;1999.90;999.90;;;;;;;42.09;3.88;95296.31;5020982;28;20250;-69
2023/10/09 14:12:05;;;;;;;40.75;39.00;;;;;;;42.44;3.70;95295.81;5022968;28;20335;-68
2023/10/09 14:14:33;;;;;;;28.08;26.77;;;;;;;41.90;3.57;95287.78;5021419;28;20182;-68
2023/10/09 14:16:58;;;;;;;21.48;20.38;;;;;;;42.56;3.89;95294.97;5023275;28;20193;-68
2023/10/09 14:19:23;;;;;;;16.85;15.95;;;;;;;42.18;3.95;95290.63;5020439;28;20214;-67
2023/10/09 14:21:50;;;;;;;13.23;12.27;;;;;;;40.33;4.85;95288.53;5025369;28;20222;-67
2023/10/09 14:24:16;;;;;;;11.52;10.48;;;;;;;40.11;4.79;95287.69;5024024;28;20281;-68
2023/10/09 14:26:44;;;;;;;11.40;10.77;;;;;;;40.57;4.71;95293.38;5023067;28;20221;-68
2023/10/09 14:29:14;;;;;;;7.30;5.68;;;;;;;40.52;4.39;95297.13;5028942;28;20210;-67
2023/10/09 14:31:40;;;;;;;6.38;5.78;;;;;;;39.58;5.30;95280.81;5020541;28;20301;-67
2023/10/09 14:34:09;;;;;;;5.97;5.20;;;;;;;39.74;5.11;95286.56;5024408;28;20286;-67
2023/10/09 14:36:34;;;;;;;3.65;2.72;;;;;;;38.30;6.07;95287.75;5024131;28;20221;-68
2023/10/09 14:39:00;;;;;;;4.03;2.50;;;;;;;36.36;7.01;95280.00;5018150;28;20605;-68
2023/10/09 14:41:27;;;;;;;6.03;2.70;;;;;;;34.15;8.04;95281.56;5025214;28;20185;-68
2023/10/09 14:43:53;;;;;;;6.78;2.85;;;;;;;32.71;9.04;95276.81;5024196;28;20225;-68
2023/10/09 14:46:26;;;;;;;4.88;2.40;;;;;;;31.77;9.85;95274.13;5017589;28;20272;-68
2023/10/09 14:48:53;;;;;;;9.20;3.05;;;;;;;30.47;10.54;95271.94;5024237;28;20361;-68
2023/10/09 14:51:29;;;;;;;3.88;3.17;;;;;;;30.52;10.71;95271.91;5024330;28;20265;-68
2023/10/09 14:54:01;;;;;;;5.32;2.60;;;;;;;30.54;10.73;95253.44;5019751;28;20219;-69
2023/10/09 14:56:30;;;;;;;3.88;2.60;;;;;;;29.87;11.16;95254.44;5027168;28;20197;-68
2023/10/09 14:59:00;;;;;;;3.47;2.45;;;;;;;29.20;11.39;95251.47;5018736;28;20218;-68
2023/10/09 15:01:31;;;;;;;4.57;3.00;;;;;;;28.66;11.79;95251.66;5028624;28;20582;-68
2023/10/09 15:04:00;;;;;;;4.57;2.50;;;;;;;28.18;12.63;95249.88;5024970;28;20222;-68
2023/10/09 15:06:30;;;;;;;6.45;2.75;;;;;;;28.21;12.14;95250.16;5021795;28;20223;-68
2023/10/09 15:09:00;;;;;;;7.47;2.60;;;;;;;27.51;13.18;95256.44;5021393;28;20325;-69